Weather Melbourne :: Current Conditions and Historical Data

 
Daily Summary for November 29, 2014 Units:  Both    English   Metric
« Previous Day
Next Day »
Daily Weekly Monthly Yearly Custom
  Current: High: Low: Average:
Temperature: 54.3 °F /  12.4 °C 54.9 °F /  12.7 °C 52.4 °F /  11.3 °C 53.5 °F /  11.9 °C
Dew Point: 50.8 °F /  10.4 °C 50.8 °F /  10.4 °C 48.0 °F /  8.9 °C 49 °F /  9.4 °C
Humidity: 88 % 88 % 81 % 85 %
Wind Speed: 0.0 mph /  0 km/h 3.5 mph /  5.6 km/h - 0.5 mph /  0.8 km/h
Wind Gust: 0.0 mph /  0 km/h 3.5 mph /  5.6 km/h - -
Wind:Calm - - SW
Pressure: 30.03 in /  1016.8 hPa 30.08 in /  1018.5 hPa 30.02 in /  1016.5 hPa -
Precipitation: 0.00 in /  0 mm      
Melbourne, Australia Weather Graphs
 
 
Melbourne, current snapshot. Courtesy of citylink.com.au
Weather Melbourne

Melbourne Weather Radar




Weather in Melbourne, AU
Hourly Data for November 29, 2014
Time Temperature Dew Point Pressure Wind Wind Speed Wind Gust Humidity Rainfall Rate (Hourly) solar Conditions
00:01 54.9 °F /  12.7 °C 49.2 °F /  9.6 °C 30.08 in /  1018.5 hPa SSW 3.5 mph /  5.6 km/h 3.5 mph /  5.6 km/h 81 % 0.00 in /  0 mm 0.0 W/m2 BKN
00:06 54.8 °F /  12.7 °C 49.1 °F /  9.5 °C 30.08 in /  1018.5 hPa SW 3.5 mph /  5.6 km/h 3.5 mph /  5.6 km/h 81 % 0.00 in /  0 mm 0.0 W/m2 BKN
00:11 54.7 °F /  12.6 °C 49.3 °F /  9.6 °C 30.08 in /  1018.5 hPa SSW 3.5 mph /  5.6 km/h 3.5 mph /  5.6 km/h 82 % 0.00 in /  0 mm 0.0 W/m2 BKN
00:16 54.6 °F /  12.6 °C 49.2 °F /  9.6 °C 30.08 in /  1018.5 hPa SW 3.5 mph /  5.6 km/h 3.5 mph /  5.6 km/h 82 % 0.00 in /  0 mm 0.0 W/m2 BKN
00:21 54.6 °F /  12.6 °C 49.2 °F /  9.6 °C 30.07 in /  1018.2 hPa SW 3.5 mph /  5.6 km/h 3.5 mph /  5.6 km/h 82 % 0.00 in /  0 mm 0.0 W/m2 BKN
00:26 54.5 °F /  12.5 °C 50.1 °F /  10.1 °C 30.07 in /  1018.2 hPa SW 2.3 mph /  3.7 km/h 2.3 mph /  3.7 km/h 85 % 0.00 in /  0 mm 0.0 W/m2 BKN
00:31 54.4 °F /  12.4 °C 49.0 °F /  9.4 °C 30.07 in /  1018.2 hPa SSW 1.2 mph /  1.9 km/h 1.2 mph /  1.9 km/h 82 % 0.00 in /  0 mm 0.0 W/m2 BKN
00:36 54.3 °F /  12.4 °C 48.9 °F /  9.4 °C 30.07 in /  1018.2 hPa SW 1.2 mph /  1.9 km/h 1.2 mph /  1.9 km/h 82 % 0.00 in /  0 mm 0.0 W/m2 BKN
00:41 54.2 °F /  12.3 °C 48.8 °F /  9.3 °C 30.07 in /  1018.2 hPa SW 1.2 mph /  1.9 km/h 1.2 mph /  1.9 km/h 82 % 0.00 in /  0 mm 0.0 W/m2 BKN
00:46 54.2 °F /  12.3 °C 48.8 °F /  9.3 °C 30.06 in /  1017.8 hPa Calm     82 % 0.00 in /  0 mm 0.0 W/m2 BKN
00:51 54.0 °F /  12.2 °C 49.0 °F /  9.4 °C 30.06 in /  1017.8 hPa SW 3.5 mph /  5.6 km/h 3.5 mph /  5.6 km/h 83 % 0.00 in /  0 mm 0.0 W/m2 BKN
00:56 54.0 °F /  12.2 °C 49.0 °F /  9.4 °C 30.06 in /  1017.8 hPa SW 2.3 mph /  3.7 km/h 2.3 mph /  3.7 km/h 83 % 0.00 in /  0 mm 0.0 W/m2 BKN
01:01 53.9 °F /  12.2 °C 48.9 °F /  9.4 °C 30.06 in /  1017.8 hPa Calm     83 % 0.00 in /  0 mm 0.0 W/m2 BKN
01:06 53.8 °F /  12.1 °C 48.8 °F /  9.3 °C 30.06 in /  1017.8 hPa Calm     83 % 0.00 in /  0 mm 0.0 W/m2 BKN
01:11 53.7 °F /  12.1 °C 48.7 °F /  9.3 °C 30.05 in /  1017.5 hPa Calm     83 % 0.00 in /  0 mm 0.0 W/m2 BKN
01:16 53.6 °F /  12 °C 48.6 °F /  9.2 °C 30.05 in /  1017.5 hPa Calm     83 % 0.00 in /  0 mm 0.0 W/m2 BKN
01:21 53.5 °F /  11.9 °C 48.8 °F /  9.3 °C 30.05 in /  1017.5 hPa SW 2.3 mph /  3.7 km/h 2.3 mph /  3.7 km/h 84 % 0.00 in /  0 mm 0.0 W/m2 BKN
01:26 53.5 °F /  11.9 °C 48.8 °F /  9.3 °C 30.05 in /  1017.5 hPa Calm     84 % 0.00 in /  0 mm 0.0 W/m2 BKN
01:31 53.4 °F /  11.9 °C 48.7 °F /  9.3 °C 30.05 in /  1017.5 hPa Calm     84 % 0.00 in /  0 mm 0.0 W/m2 BKN
01:36 53.3 °F /  11.8 °C 48.6 °F /  9.2 °C 30.05 in /  1017.5 hPa Calm     84 % 0.00 in /  0 mm 0.0 W/m2 BKN
01:41 53.3 °F /  11.8 °C 48.6 °F /  9.2 °C 30.04 in /  1017.2 hPa Calm     84 % 0.00 in /  0 mm 0.0 W/m2 BKN
01:46 53.2 °F /  11.8 °C 48.5 °F /  9.2 °C 30.04 in /  1017.2 hPa Calm     84 % 0.00 in /  0 mm 0.0 W/m2 BKN
01:51 53.1 °F /  11.7 °C 48.4 °F /  9.1 °C 30.04 in /  1017.2 hPa Calm     84 % 0.00 in /  0 mm 0.0 W/m2 BKN
01:56 53.1 °F /  11.7 °C 48.4 °F /  9.1 °C 30.03 in /  1016.8 hPa Calm     84 % 0.00 in /  0 mm 0.0 W/m2 BKN
02:01 53.0 °F /  11.7 °C 48.3 °F /  9.1 °C 30.04 in /  1017.2 hPa Calm     84 % 0.00 in /  0 mm 0.0 W/m2 BKN
02:06 52.9 °F /  11.6 °C 48.2 °F /  9 °C 30.04 in /  1017.2 hPa Calm     84 % 0.00 in /  0 mm 0.0 W/m2 BKN
02:11 52.8 °F /  11.6 °C 48.1 °F /  8.9 °C 30.03 in /  1016.8 hPa Calm     84 % 0.00 in /  0 mm 0.0 W/m2 BKN
02:16 52.8 °F /  11.6 °C 48.1 °F /  8.9 °C 30.03 in /  1016.8 hPa Calm     84 % 0.00 in /  0 mm 0.0 W/m2 BKN
02:21 52.7 °F /  11.5 °C 48.0 °F /  8.9 °C 30.03 in /  1016.8 hPa Calm     84 % 0.00 in /  0 mm 0.0 W/m2 BKN
02:26 52.7 °F /  11.5 °C 48.3 °F /  9.1 °C 30.03 in /  1016.8 hPa Calm     85 % 0.00 in /  0 mm 0.0 W/m2 BKN
02:31 52.6 °F /  11.4 °C 48.2 °F /  9 °C 30.03 in /  1016.8 hPa Calm     85 % 0.00 in /  0 mm 0.0 W/m2 BKN
02:36 52.6 °F /  11.4 °C 48.2 °F /  9 °C 30.03 in /  1016.8 hPa Calm     85 % 0.00 in /  0 mm 0.0 W/m2 BKN
02:41 52.6 °F /  11.4 °C 48.2 °F /  9 °C 30.03 in /  1016.8 hPa Calm     85 % 0.00 in /  0 mm 0.0 W/m2 BKN
02:46 52.5 °F /  11.4 °C 48.1 °F /  8.9 °C 30.03 in /  1016.8 hPa Calm     85 % 0.00 in /  0 mm 0.0 W/m2 BKN
02:51 52.5 °F /  11.4 °C 48.4 °F /  9.1 °C 30.03 in /  1016.8 hPa Calm     86 % 0.00 in /  0 mm 0.0 W/m2 BKN
02:56 52.5 °F /  11.4 °C 48.4 °F /  9.1 °C 30.03 in /  1016.8 hPa Calm     86 % 0.00 in /  0 mm 0.0 W/m2 BKN
03:01 52.5 °F /  11.4 °C 48.4 °F /  9.1 °C 30.03 in /  1016.8 hPa Calm     86 % 0.00 in /  0 mm 0.0 W/m2 BKN
03:06 52.4 °F /  11.3 °C 48.3 °F /  9.1 °C 30.03 in /  1016.8 hPa Calm     86 % 0.00 in /  0 mm 0.0 W/m2 BKN
03:11 52.5 °F /  11.4 °C 48.4 °F /  9.1 °C 30.03 in /  1016.8 hPa Calm     86 % 0.00 in /  0 mm 0.0 W/m2 BKN
03:16 52.6 °F /  11.4 °C 48.8 °F /  9.3 °C 30.03 in /  1016.8 hPa Calm     87 % 0.00 in /  0 mm 0.0 W/m2 BKN
03:21 52.8 °F /  11.6 °C 49.0 °F /  9.4 °C 30.03 in /  1016.8 hPa Calm     87 % 0.00 in /  0 mm 0.0 W/m2 BKN
03:26 52.9 °F /  11.6 °C 49.1 °F /  9.5 °C 30.03 in /  1016.8 hPa Calm     87 % 0.00 in /  0 mm 0.0 W/m2 BKN
03:31 53.0 °F /  11.7 °C 49.2 °F /  9.6 °C 30.03 in /  1016.8 hPa Calm     87 % 0.00 in /  0 mm 0.0 W/m2 BKN
03:36 53.0 °F /  11.7 °C 49.2 °F /  9.6 °C 30.03 in /  1016.8 hPa Calm     87 % 0.00 in /  0 mm 0.0 W/m2 BKN
03:41 53.1 °F /  11.7 °C 49.3 °F /  9.6 °C 30.03 in /  1016.8 hPa Calm     87 % 0.00 in /  0 mm 0.0 W/m2 BKN
03:46 53.2 °F /  11.8 °C 49.4 °F /  9.7 °C 30.02 in /  1016.5 hPa Calm     87 % 0.00 in /  0 mm 0.0 W/m2 OVC
03:51 53.3 °F /  11.8 °C 49.5 °F /  9.7 °C 30.02 in /  1016.5 hPa Calm     87 % 0.00 in /  0 mm 0.0 W/m2 OVC
03:56 53.4 °F /  11.9 °C 49.6 °F /  9.8 °C 30.02 in /  1016.5 hPa Calm     87 % 0.00 in /  0 mm 0.0 W/m2 OVC
04:01 53.5 °F /  11.9 °C 49.7 °F /  9.8 °C 30.02 in /  1016.5 hPa Calm     87 % 0.00 in /  0 mm 0.0 W/m2 OVC
04:06 53.6 °F /  12 °C 49.8 °F /  9.9 °C 30.02 in /  1016.5 hPa Calm     87 % 0.00 in /  0 mm 0.0 W/m2 OVC
04:11 53.7 °F /  12.1 °C 49.9 °F /  9.9 °C 30.03 in /  1016.8 hPa Calm     87 % 0.00 in /  0 mm 0.0 W/m2 OVC
04:16 53.8 °F /  12.1 °C 50.0 °F /  10 °C 30.03 in /  1016.8 hPa Calm     87 % 0.00 in /  0 mm 0.0 W/m2 OVC
04:21 53.9 °F /  12.2 °C 50.1 °F /  10.1 °C 30.02 in /  1016.5 hPa Calm     87 % 0.00 in /  0 mm 0.0 W/m2 OVC
04:26 54.0 °F /  12.2 °C 50.5 °F /  10.3 °C 30.02 in /  1016.5 hPa Calm     88 % 0.00 in /  0 mm 0.0 W/m2 OVC
04:31 54.0 °F /  12.2 °C 50.5 °F /  10.3 °C 30.03 in /  1016.8 hPa Calm     88 % 0.00 in /  0 mm 0.0 W/m2 OVC
04:36 54.1 °F /  12.3 °C 50.6 °F /  10.3 °C 30.03 in /  1016.8 hPa Calm     88 % 0.00 in /  0 mm 0.0 W/m2 OVC
04:41 54.2 °F /  12.3 °C 50.7 °F /  10.4 °C 30.03 in /  1016.8 hPa Calm     88 % 0.00 in /  0 mm 0.0 W/m2 OVC
04:46 54.2 °F /  12.3 °C 50.7 °F /  10.4 °C 30.03 in /  1016.8 hPa Calm     88 % 0.00 in /  0 mm 0.0 W/m2 OVC
04:51 54.3 °F /  12.4 °C 50.8 °F /  10.4 °C 30.03 in /  1016.8 hPa Calm     88 % 0.00 in /  0 mm 0.0 W/m2 OVC
Melbourne Forecast
About Melbourne | City of Melbourne official website